createdAt,value
2022-07-26T00:02:21.431Z,88.28
2022-07-26T00:04:47.914Z,88.48
2022-07-26T00:07:14.406Z,88.48
2022-07-26T00:09:44.977Z,88.63
2022-07-26T00:14:40.564Z,88.63
2022-07-26T00:17:08.082Z,88.92
2022-07-26T00:19:34.446Z,88.89
2022-07-26T00:22:19.505Z,89.94
2022-07-26T00:24:45.884Z,89.44
2022-07-26T00:27:12.271Z,89.46
2022-07-26T00:29:38.624Z,89.48
2022-07-26T00:34:31.685Z,91.03
2022-07-26T00:36:58.054Z,90.63
2022-07-26T00:39:24.539Z,92.15
2022-07-26T00:41:51.159Z,91.57
2022-07-26T00:44:17.552Z,91.85
2022-07-26T00:46:44.474Z,92.25
2022-07-26T00:51:38.705Z,92.71
2022-07-26T00:54:06.188Z,92.71
2022-07-26T00:59:00.957Z,92.94
2022-07-26T01:01:27.368Z,92.64
2022-07-26T01:03:54.419Z,92.51
2022-07-26T01:06:25.318Z,93.18
2022-07-26T01:08:53.706Z,93.34
2022-07-26T01:11:20.107Z,93.89
2022-07-26T01:13:50.493Z,93.75
2022-07-26T01:16:17.648Z,94.18
2022-07-26T01:18:44.521Z,94.22
2022-07-26T01:23:41.172Z,94.21
2022-07-26T01:26:08.203Z,94.32
2022-07-26T01:28:40.434Z,94.38
2022-07-26T01:31:07.955Z,94.90
2022-07-26T01:33:34.943Z,94.31
2022-07-26T01:36:01.793Z,94.80
2022-07-26T01:38:28.429Z,94.94
2022-07-26T01:40:54.986Z,94.99
2022-07-26T01:43:21.422Z,94.88
2022-07-26T01:53:07.000Z,94.83
2022-07-26T01:55:34.436Z,95.09
2022-07-26T02:00:27.333Z,95.23
2022-07-26T02:05:20.275Z,94.96
2022-07-26T02:07:46.679Z,94.87
2022-07-26T02:10:14.649Z,95.51
2022-07-26T02:12:41.711Z,95.71
2022-07-26T02:15:10.056Z,94.92
2022-07-26T02:17:36.480Z,95.21
2022-07-26T02:20:03.889Z,95.27
2022-07-26T02:22:30.441Z,95.99
2022-07-26T02:27:28.083Z,96.48
2022-07-26T02:29:54.433Z,96.32
2022-07-26T02:32:20.801Z,96.54
2022-07-26T02:37:13.598Z,96.74
2022-07-26T02:39:40.079Z,97.57
2022-07-26T02:42:06.528Z,97.65
2022-07-26T02:44:34.743Z,97.79
2022-07-26T02:47:02.228Z,97.53
2022-07-26T02:51:54.902Z,96.61
2022-07-26T02:59:13.917Z,98.58
2022-07-26T03:01:40.445Z,98.72
2022-07-26T03:04:09.772Z,98.55
2022-07-26T03:06:36.485Z,98.96
2022-07-26T03:09:03.123Z,99.25
2022-07-26T03:11:29.640Z,99.94
2022-07-26T03:13:56.006Z,99.95
2022-07-26T03:16:26.093Z,100.00
2022-07-26T03:18:55.698Z,99.91
2022-07-26T03:21:22.191Z,100.00
2022-07-26T03:23:48.650Z,100.00
2022-07-26T03:28:42.538Z,100.00
2022-07-26T03:31:09.058Z,100.00
2022-07-26T03:33:35.529Z,100.00
2022-07-26T03:36:02.001Z,100.00
2022-07-26T03:40:54.819Z,100.00
2022-07-26T03:45:50.273Z,100.00
2022-07-26T03:50:43.099Z,100.00
2022-07-26T03:53:09.497Z,100.00
2022-07-26T03:55:54.657Z,100.00
2022-07-26T03:58:22.162Z,100.00
2022-07-26T04:00:48.582Z,100.00
2022-07-26T04:03:15.049Z,100.00
2022-07-26T04:05:41.415Z,100.00
2022-07-26T04:08:15.464Z,100.00
2022-07-26T04:10:45.706Z,100.00
2022-07-26T04:13:12.068Z,100.00
2022-07-26T04:15:38.408Z,100.00
2022-07-26T04:18:04.862Z,100.00
2022-07-26T04:20:31.210Z,100.00
2022-07-26T04:22:57.584Z,100.00
2022-07-26T04:25:24.170Z,100.00
2022-07-26T04:27:50.536Z,100.00
2022-07-26T04:35:13.481Z,100.00
2022-07-26T04:37:42.550Z,100.00
2022-07-26T04:40:10.672Z,100.00
2022-07-26T04:42:39.343Z,100.00
2022-07-26T04:45:08.590Z,100.00
2022-07-26T04:50:03.827Z,100.00
2022-07-26T04:52:30.225Z,100.00
2022-07-26T04:54:56.581Z,100.00
2022-07-26T04:57:23.479Z,100.00
2022-07-26T05:00:03.347Z,100.00
2022-07-26T05:02:36.631Z,100.00
2022-07-26T05:05:04.929Z,100.00
2022-07-26T05:07:48.390Z,100.00
2022-07-26T05:10:16.377Z,100.00
2022-07-26T05:12:43.042Z,100.00
2022-07-26T05:15:13.774Z,100.00
2022-07-26T05:17:43.088Z,100.00
2022-07-26T05:20:13.724Z,100.00
2022-07-26T05:25:07.205Z,100.00
2022-07-26T05:27:34.035Z,100.00
2022-07-26T05:30:00.656Z,100.00
2022-07-26T05:32:28.093Z,100.00
2022-07-26T05:37:21.060Z,100.00
2022-07-26T05:39:47.545Z,100.00
2022-07-26T05:42:13.964Z,100.00
2022-07-26T05:44:42.517Z,100.00
2022-07-26T05:47:09.914Z,100.00
2022-07-26T05:49:40.059Z,100.00
2022-07-26T05:52:08.001Z,100.00
2022-07-26T05:54:34.570Z,100.00
2022-07-26T05:57:00.945Z,100.00
2022-07-26T05:59:27.666Z,100.00
2022-07-26T06:04:25.961Z,100.00
2022-07-26T06:06:54.437Z,100.00
2022-07-26T06:14:14.467Z,100.00
2022-07-26T06:16:41.334Z,100.00
2022-07-26T06:19:07.807Z,100.00
2022-07-26T06:21:34.169Z,100.00
2022-07-26T06:24:00.552Z,100.00
2022-07-26T06:26:26.920Z,100.00
2022-07-26T06:28:53.315Z,100.00
2022-07-26T06:31:19.755Z,100.00
2022-07-26T06:33:46.426Z,100.00
2022-07-26T06:36:12.889Z,100.00
2022-07-26T06:38:39.285Z,100.00
2022-07-26T06:41:05.837Z,100.00
2022-07-26T06:43:32.273Z,100.00
2022-07-26T06:45:58.696Z,100.00
2022-07-26T06:50:51.647Z,100.00
2022-07-26T06:53:18.098Z,100.00
2022-07-26T06:58:12.427Z,100.00
2022-07-26T07:00:38.945Z,100.00
2022-07-26T07:03:05.410Z,100.00
2022-07-26T07:10:25.469Z,100.00
2022-07-26T07:12:51.847Z,100.00
2022-07-26T07:15:18.269Z,100.00
2022-07-26T07:17:45.245Z,100.00
2022-07-26T07:20:12.994Z,100.00
2022-07-26T07:22:39.404Z,100.00
2022-07-26T07:25:06.285Z,100.00
2022-07-26T07:27:33.126Z,100.00
2022-07-26T07:29:59.752Z,100.00
2022-07-26T07:32:26.382Z,100.00
2022-07-26T07:34:52.978Z,100.00
2022-07-26T07:42:18.167Z,100.00
2022-07-26T07:44:44.619Z,100.00
2022-07-26T07:47:11.194Z,100.00
2022-07-26T07:54:30.584Z,100.00
2022-07-26T07:59:24.241Z,100.00
2022-07-26T08:04:17.236Z,100.00
2022-07-26T08:21:30.591Z,100.00
2022-07-26T08:23:57.858Z,100.00
2022-07-26T08:26:24.682Z,100.00
2022-07-26T08:28:59.626Z,100.00
2022-07-26T08:31:28.154Z,100.00
2022-07-26T08:33:55.800Z,100.00
2022-07-26T08:36:22.269Z,100.00
2022-07-26T08:41:17.375Z,100.00
2022-07-26T08:43:51.052Z,100.00
2022-07-26T08:46:25.369Z,100.00
2022-07-26T08:48:53.085Z,99.15
2022-07-26T08:51:22.493Z,98.95
2022-07-26T08:53:50.178Z,99.06
2022-07-26T08:56:16.534Z,100.00
2022-07-26T08:58:43.770Z,96.95
2022-07-26T09:01:12.849Z,95.61
2022-07-26T09:03:40.741Z,94.78
2022-07-26T09:06:14.906Z,94.16
2022-07-26T09:08:42.111Z,96.16
2022-07-26T09:13:51.897Z,97.41
2022-07-26T09:16:18.981Z,97.75
2022-07-26T09:21:30.922Z,97.18
2022-07-26T09:23:58.530Z,97.29
2022-07-26T09:29:12.887Z,96.23
2022-07-26T09:31:39.951Z,96.63
2022-07-26T09:34:07.377Z,94.67
2022-07-26T09:36:51.166Z,94.86
2022-07-26T09:42:04.822Z,93.39
2022-07-26T09:49:41.993Z,87.95
2022-07-26T09:59:34.490Z,87.59
2022-07-26T10:02:01.218Z,85.38
2022-07-26T10:04:27.666Z,87.14
2022-07-26T10:06:54.353Z,86.20
2022-07-26T10:09:22.843Z,85.93
2022-07-26T10:14:45.702Z,93.38
2022-07-26T10:17:31.479Z,95.21
2022-07-26T10:22:33.929Z,98.65
2022-07-26T10:25:18.631Z,98.99
2022-07-26T10:27:50.738Z,100.00
2022-07-26T10:30:17.070Z,100.00
2022-07-26T10:33:03.829Z,100.00
2022-07-26T10:35:36.268Z,100.00
2022-07-26T10:38:08.461Z,100.00
2022-07-26T10:40:35.969Z,100.00
2022-07-26T10:48:59.766Z,100.00
2022-07-26T10:54:09.392Z,100.00
2022-07-26T10:59:03.599Z,100.00
2022-07-26T11:01:34.849Z,100.00
2022-07-26T11:04:01.468Z,100.00
2022-07-26T11:08:56.162Z,100.00
2022-07-26T11:16:41.256Z,100.00
2022-07-26T11:19:24.484Z,100.00
2022-07-26T11:21:55.936Z,100.00
2022-07-26T11:24:22.540Z,100.00
2022-07-26T11:29:17.496Z,100.00
2022-07-26T11:31:50.673Z,100.00
2022-07-26T11:34:28.511Z,100.00
2022-07-26T11:36:57.320Z,100.00
2022-07-26T11:39:29.703Z,100.00
2022-07-26T11:46:53.926Z,100.00
2022-07-26T11:52:02.289Z,100.00
2022-07-26T11:54:31.297Z,100.00
2022-07-26T11:57:00.406Z,100.00
2022-07-26T12:01:58.531Z,100.00
2022-07-26T12:06:55.144Z,100.00
2022-07-26T12:09:41.516Z,100.00
2022-07-26T12:14:38.512Z,100.00
2022-07-26T12:17:15.500Z,100.00
2022-07-26T12:19:43.200Z,100.00
2022-07-26T12:27:22.008Z,100.00
2022-07-26T12:30:13.211Z,98.60
2022-07-26T12:35:14.029Z,96.20
2022-07-26T12:37:46.407Z,95.91
2022-07-26T12:40:15.936Z,94.99
2022-07-26T12:42:44.756Z,95.30
2022-07-26T12:59:58.153Z,92.94
2022-07-26T13:02:25.555Z,93.41
2022-07-26T13:07:26.207Z,92.77
2022-07-26T13:10:21.497Z,93.27
2022-07-26T13:12:40.205Z,94.63
2022-07-26T13:19:59.642Z,93.68
2022-07-26T13:22:26.042Z,93.56
2022-07-26T13:27:20.234Z,92.82
2022-07-26T13:29:46.608Z,91.70
2022-07-26T13:37:08.091Z,92.21
2022-07-26T13:39:35.041Z,91.40
2022-07-26T13:46:54.107Z,92.47
2022-07-26T13:49:20.569Z,92.05
2022-07-26T13:51:59.309Z,91.86
2022-07-26T13:56:54.385Z,91.17
2022-07-26T13:59:20.811Z,91.62
2022-07-26T14:06:41.841Z,91.75
2022-07-26T14:09:11.036Z,93.05
2022-07-26T14:11:38.404Z,92.24
2022-07-26T14:21:29.588Z,89.95
2022-07-26T14:29:03.773Z,90.84
2022-07-26T14:36:25.372Z,92.53
2022-07-26T14:38:51.858Z,91.41
2022-07-26T14:43:45.249Z,88.60
2022-07-26T14:48:54.144Z,90.75
2022-07-26T14:51:21.545Z,89.03
2022-07-26T14:56:14.514Z,90.26
2022-07-26T14:58:40.949Z,88.23
2022-07-26T15:01:07.639Z,89.59
2022-07-26T15:03:34.227Z,89.12
2022-07-26T15:06:00.642Z,86.49
2022-07-26T15:08:27.080Z,85.28
2022-07-26T15:13:19.951Z,84.99
2022-07-26T15:15:46.329Z,85.88
2022-07-26T15:18:12.716Z,86.55
2022-07-26T15:23:07.944Z,84.97
2022-07-26T15:32:56.474Z,88.63
2022-07-26T15:40:16.045Z,88.61
2022-07-26T15:45:12.000Z,89.89
2022-07-26T15:48:00.061Z,90.57
2022-07-26T15:52:52.784Z,90.84
2022-07-26T15:57:46.467Z,91.98
2022-07-26T16:00:13.855Z,92.67
2022-07-26T16:07:34.348Z,94.81
2022-07-26T16:10:01.526Z,94.78
2022-07-26T16:12:29.252Z,95.02
2022-07-26T16:17:21.950Z,96.51
2022-07-26T16:19:48.667Z,95.53
2022-07-26T16:22:15.167Z,95.50
2022-07-26T16:27:07.822Z,96.70
2022-07-26T16:29:34.239Z,97.41
2022-07-26T16:34:28.261Z,100.00
2022-07-26T16:41:47.255Z,100.00
2022-07-26T16:46:40.018Z,100.00
2022-07-26T16:49:06.495Z,100.00
2022-07-26T16:51:32.979Z,100.00
2022-07-26T16:53:59.504Z,100.00
2022-07-26T16:56:25.910Z,100.00
2022-07-26T17:06:11.738Z,100.00
2022-07-26T17:08:38.331Z,100.00
2022-07-26T17:11:04.736Z,100.00
2022-07-26T17:13:31.170Z,100.00
2022-07-26T17:15:57.676Z,100.00
2022-07-26T17:18:24.193Z,100.00
2022-07-26T17:20:50.739Z,100.00
2022-07-26T17:25:45.412Z,100.00
2022-07-26T17:33:04.830Z,100.00
2022-07-26T17:35:31.504Z,100.00
2022-07-26T17:37:57.899Z,100.00
2022-07-26T17:40:25.840Z,100.00
2022-07-26T17:42:53.384Z,100.00
2022-07-26T17:45:19.858Z,100.00
2022-07-26T17:55:25.842Z,100.00
2022-07-26T17:57:52.576Z,100.00
2022-07-26T18:00:21.437Z,100.00
2022-07-26T18:07:41.304Z,100.00
2022-07-26T18:15:00.605Z,100.00
2022-07-26T18:19:53.286Z,100.00
2022-07-26T18:22:19.647Z,100.00
2022-07-26T18:24:46.312Z,100.00
2022-07-26T18:29:39.065Z,100.00
2022-07-26T18:32:05.872Z,100.00
2022-07-26T18:34:32.293Z,100.00
2022-07-26T18:39:25.111Z,100.00
2022-07-26T18:44:25.444Z,100.00
2022-07-26T18:49:20.068Z,99.85
2022-07-26T18:51:48.471Z,100.00
2022-07-26T18:54:15.855Z,100.00
2022-07-26T18:59:09.036Z,98.07
2022-07-26T19:01:35.728Z,98.81
2022-07-26T19:06:34.590Z,99.30
2022-07-26T19:09:01.238Z,98.40
2022-07-26T19:16:22.188Z,95.51
2022-07-26T19:23:45.568Z,95.40
2022-07-26T19:26:11.924Z,94.48
2022-07-26T19:28:38.305Z,93.25
2022-07-26T19:33:31.213Z,90.98
2022-07-26T19:35:58.938Z,89.83
2022-07-26T19:38:25.452Z,89.30
2022-07-26T19:43:19.205Z,88.11
2022-07-26T19:45:48.063Z,87.89
2022-07-26T19:48:14.428Z,87.96
2022-07-26T19:50:41.193Z,88.45
2022-07-26T19:55:33.832Z,87.89
2022-07-26T19:58:00.177Z,88.22
2022-07-26T20:02:54.412Z,88.24
2022-07-26T20:10:15.244Z,89.12
2022-07-26T20:12:42.589Z,88.74
2022-07-26T20:17:38.979Z,89.35
2022-07-26T20:20:07.498Z,89.62
2022-07-26T20:27:26.739Z,89.20
2022-07-26T20:34:53.254Z,85.56
2022-07-26T20:37:19.665Z,85.16
2022-07-26T20:39:46.831Z,85.55
2022-07-26T20:42:21.551Z,84.39
2022-07-26T20:44:48.663Z,84.43
2022-07-26T20:47:15.130Z,83.69
2022-07-26T20:49:41.518Z,83.69
2022-07-26T20:52:08.110Z,83.72
2022-07-26T20:54:34.572Z,83.92
2022-07-26T20:57:00.948Z,84.16
2022-07-26T21:01:58.631Z,84.63
2022-07-26T21:04:25.014Z,84.89
2022-07-26T21:06:51.414Z,85.15
2022-07-26T21:09:19.096Z,84.68
2022-07-26T21:14:12.005Z,83.45
2022-07-26T21:16:38.499Z,82.95
2022-07-26T21:19:05.906Z,83.36
2022-07-26T21:21:33.967Z,83.86
2022-07-26T21:24:00.329Z,82.96
2022-07-26T21:26:26.804Z,83.76
2022-07-26T21:28:53.179Z,83.39
2022-07-26T21:33:47.384Z,83.38
2022-07-26T21:38:41.480Z,82.72
2022-07-26T21:41:07.852Z,83.56
2022-07-26T21:43:34.436Z,83.08
2022-07-26T21:46:00.850Z,83.35
2022-07-26T21:48:27.673Z,83.16
2022-07-26T21:50:54.061Z,83.81
2022-07-26T21:53:20.443Z,83.98
2022-07-26T21:55:46.896Z,84.32
2022-07-26T21:58:13.305Z,84.15
2022-07-26T22:00:39.813Z,85.01
2022-07-26T22:03:07.269Z,84.79
2022-07-26T22:05:39.712Z,85.44
2022-07-26T22:08:08.251Z,85.61
2022-07-26T22:10:35.415Z,85.66
2022-07-26T22:13:11.096Z,86.05
2022-07-26T22:18:03.954Z,87.01
2022-07-26T22:20:31.933Z,87.51
2022-07-26T22:25:27.354Z,88.24
2022-07-26T22:32:47.171Z,89.62
2022-07-26T22:35:13.577Z,89.61
2022-07-26T22:37:40.052Z,90.07
2022-07-26T22:40:07.018Z,90.29
2022-07-26T22:44:59.717Z,91.16
2022-07-26T22:47:26.367Z,90.96
2022-07-26T22:49:52.824Z,90.81
2022-07-26T22:52:19.360Z,91.25
2022-07-26T22:57:12.020Z,91.44
2022-07-26T22:59:38.520Z,91.71
2022-07-26T23:02:04.908Z,91.76
2022-07-26T23:04:31.294Z,92.17
2022-07-26T23:06:57.639Z,92.52
2022-07-26T23:09:25.064Z,92.61
2022-07-26T23:11:51.428Z,92.79
2022-07-26T23:16:45.080Z,93.06
2022-07-26T23:19:11.885Z,93.00
2022-07-26T23:21:38.565Z,93.02
2022-07-26T23:24:05.149Z,93.29
2022-07-26T23:26:31.748Z,93.41
2022-07-26T23:28:58.126Z,93.29
2022-07-26T23:33:54.453Z,93.57
2022-07-26T23:38:48.397Z,93.82
2022-07-26T23:41:14.776Z,93.97
2022-07-26T23:43:41.189Z,94.17
2022-07-26T23:46:07.587Z,94.34
2022-07-26T23:48:34.030Z,94.17
2022-07-26T23:51:00.581Z,94.75
2022-07-26T23:53:27.346Z,94.76
